sensor_id;sensor_type;location;lat;lon;timestamp;temperature;humidity
11087;DHT22;5597;47.588;9.642;2024-02-04T00:00:23;4.50;99.90
11087;DHT22;5597;47.588;9.642;2024-02-04T00:02:49;4.50;99.90
11087;DHT22;5597;47.588;9.642;2024-02-04T00:05:15;4.50;99.90
11087;DHT22;5597;47.588;9.642;2024-02-04T00:07:40;4.50;99.90
11087;DHT22;5597;47.588;9.642;2024-02-04T00:10:06;4.40;99.90
11087;DHT22;5597;47.588;9.642;2024-02-04T00:12:32;4.40;99.90
11087;DHT22;5597;47.588;9.642;2024-02-04T00:14:57;4.40;99.90
11087;DHT22;5597;47.588;9.642;2024-02-04T00:17:23;4.40;99.90
11087;DHT22;5597;47.588;9.642;2024-02-04T00:19:49;4.40;99.90
11087;DHT22;5597;47.588;9.642;2024-02-04T00:22:14;4.30;99.90
11087;DHT22;5597;47.588;9.642;2024-02-04T00:24:43;4.40;99.90
11087;DHT22;5597;47.588;9.642;2024-02-04T00:27:09;4.40;99.90
11087;DHT22;5597;47.588;9.642;2024-02-04T00:29:34;4.40;99.90
11087;DHT22;5597;47.588;9.642;2024-02-04T00:32:00;4.40;99.90
11087;DHT22;5597;47.588;9.642;2024-02-04T00:34:26;4.50;99.90
11087;DHT22;5597;47.588;9.642;2024-02-04T00:36:51;4.50;99.90
11087;DHT22;5597;47.588;9.642;2024-02-04T00:39:17;4.50;99.90
11087;DHT22;5597;47.588;9.642;2024-02-04T00:41:42;4.50;99.90
11087;DHT22;5597;47.588;9.642;2024-02-04T00:44:08;4.50;99.90
11087;DHT22;5597;47.588;9.642;2024-02-04T00:46:33;4.60;99.90
11087;DHT22;5597;47.588;9.642;2024-02-04T00:48:59;4.50;99.90
11087;DHT22;5597;47.588;9.642;2024-02-04T00:51:24;4.50;99.90
11087;DHT22;5597;47.588;9.642;2024-02-04T00:53:50;4.50;99.90
11087;DHT22;5597;47.588;9.642;2024-02-04T00:56:15;4.50;99.90
11087;DHT22;5597;47.588;9.642;2024-02-04T00:58:41;4.50;99.90
11087;DHT22;5597;47.588;9.642;2024-02-04T01:01:07;4.50;99.90
11087;DHT22;5597;47.588;9.642;2024-02-04T01:03:33;4.40;99.90
11087;DHT22;5597;47.588;9.642;2024-02-04T01:05:58;4.40;99.90
11087;DHT22;5597;47.588;9.642;2024-02-04T01:08:24;4.30;99.90
11087;DHT22;5597;47.588;9.642;2024-02-04T01:10:49;4.30;99.90
11087;DHT22;5597;47.588;9.642;2024-02-04T01:13:16;4.20;99.90
11087;DHT22;5597;47.588;9.642;2024-02-04T01:15:42;4.10;99.90
11087;DHT22;5597;47.588;9.642;2024-02-04T01:18:08;4.10;99.90
11087;DHT22;5597;47.588;9.642;2024-02-04T01:20:34;4.00;99.90
11087;DHT22;5597;47.588;9.642;2024-02-04T01:23:00;3.90;99.90
11087;DHT22;5597;47.588;9.642;2024-02-04T01:25:25;3.90;99.90
11087;DHT22;5597;47.588;9.642;2024-02-04T01:27:51;3.80;99.90
11087;DHT22;5597;47.588;9.642;2024-02-04T01:30:16;3.80;99.90
11087;DHT22;5597;47.588;9.642;2024-02-04T01:32:42;3.80;99.90
11087;DHT22;5597;47.588;9.642;2024-02-04T01:35:08;3.80;99.90
11087;DHT22;5597;47.588;9.642;2024-02-04T01:37:33;3.70;99.90
11087;DHT22;5597;47.588;9.642;2024-02-04T01:39:59;3.70;99.90
11087;DHT22;5597;47.588;9.642;2024-02-04T01:42:25;3.70;99.90
11087;DHT22;5597;47.588;9.642;2024-02-04T01:44:50;3.60;99.90
11087;DHT22;5597;47.588;9.642;2024-02-04T01:47:16;3.60;99.90
11087;DHT22;5597;47.588;9.642;2024-02-04T01:49:43;3.50;99.90
11087;DHT22;5597;47.588;9.642;2024-02-04T01:52:09;3.50;99.90
11087;DHT22;5597;47.588;9.642;2024-02-04T01:54:37;3.40;99.90
11087;DHT22;5597;47.588;9.642;2024-02-04T01:57:04;3.20;99.90
11087;DHT22;5597;47.588;9.642;2024-02-04T01:59:30;3.10;99.90
11087;DHT22;5597;47.588;9.642;2024-02-04T02:02:05;3.00;99.90
11087;DHT22;5597;47.588;9.642;2024-02-04T02:04:31;2.90;99.90
11087;DHT22;5597;47.588;9.642;2024-02-04T02:06:57;2.90;99.90
11087;DHT22;5597;47.588;9.642;2024-02-04T02:09:25;2.80;99.90
11087;DHT22;5597;47.588;9.642;2024-02-04T02:12:09;2.80;99.90
11087;DHT22;5597;47.588;9.642;2024-02-04T02:14:41;2.70;99.90
11087;DHT22;5597;47.588;9.642;2024-02-04T02:17:11;2.60;99.90
11087;DHT22;5597;47.588;9.642;2024-02-04T02:19:59;2.60;99.90
11087;DHT22;5597;47.588;9.642;2024-02-04T02:22:50;2.60;99.90
11087;DHT22;5597;47.588;9.642;2024-02-04T02:25:19;2.70;99.90
11087;DHT22;5597;47.588;9.642;2024-02-04T02:27:49;2.80;99.90
11087;DHT22;5597;47.588;9.642;2024-02-04T02:30:16;2.90;99.90
11087;DHT22;5597;47.588;9.642;2024-02-04T02:32:46;2.90;99.90
11087;DHT22;5597;47.588;9.642;2024-02-04T02:35:15;2.90;99.90
11087;DHT22;5597;47.588;9.642;2024-02-04T02:37:52;2.70;99.90
11087;DHT22;5597;47.588;9.642;2024-02-04T02:40:30;2.70;99.90
11087;DHT22;5597;47.588;9.642;2024-02-04T02:43:02;2.70;99.90
11087;DHT22;5597;47.588;9.642;2024-02-04T02:45:28;2.60;99.90
11087;DHT22;5597;47.588;9.642;2024-02-04T02:47:54;2.60;99.90
11087;DHT22;5597;47.588;9.642;2024-02-04T02:50:20;2.50;99.90
11087;DHT22;5597;47.588;9.642;2024-02-04T02:52:46;2.60;99.90
11087;DHT22;5597;47.588;9.642;2024-02-04T02:55:12;2.60;99.90
11087;DHT22;5597;47.588;9.642;2024-02-04T02:57:37;2.60;99.90
11087;DHT22;5597;47.588;9.642;2024-02-04T03:00:03;2.70;99.90
11087;DHT22;5597;47.588;9.642;2024-02-04T03:02:31;2.70;99.90
11087;DHT22;5597;47.588;9.642;2024-02-04T03:04:56;2.70;99.90
11087;DHT22;5597;47.588;9.642;2024-02-04T03:07:22;2.70;99.90
11087;DHT22;5597;47.588;9.642;2024-02-04T03:09:48;2.70;99.90
11087;DHT22;5597;47.588;9.642;2024-02-04T03:12:13;2.60;99.90
11087;DHT22;5597;47.588;9.642;2024-02-04T03:14:39;2.50;99.90
11087;DHT22;5597;47.588;9.642;2024-02-04T03:17:04;2.40;99.90
11087;DHT22;5597;47.588;9.642;2024-02-04T03:19:30;2.40;99.90
11087;DHT22;5597;47.588;9.642;2024-02-04T03:21:55;2.40;99.90
11087;DHT22;5597;47.588;9.642;2024-02-04T03:24:21;2.40;99.90
11087;DHT22;5597;47.588;9.642;2024-02-04T03:26:47;2.40;99.90
11087;DHT22;5597;47.588;9.642;2024-02-04T03:29:12;2.50;99.90
11087;DHT22;5597;47.588;9.642;2024-02-04T03:31:38;2.50;99.90
11087;DHT22;5597;47.588;9.642;2024-02-04T03:34:03;2.50;99.90
11087;DHT22;5597;47.588;9.642;2024-02-04T03:36:31;2.60;99.90
11087;DHT22;5597;47.588;9.642;2024-02-04T03:38:57;2.60;99.90
11087;DHT22;5597;47.588;9.642;2024-02-04T03:41:22;2.50;99.90
11087;DHT22;5597;47.588;9.642;2024-02-04T03:43:48;2.50;99.90
11087;DHT22;5597;47.588;9.642;2024-02-04T03:46:15;2.40;99.90
11087;DHT22;5597;47.588;9.642;2024-02-04T03:48:41;2.40;99.90
11087;DHT22;5597;47.588;9.642;2024-02-04T03:51:07;2.40;99.90
11087;DHT22;5597;47.588;9.642;2024-02-04T03:53:33;2.40;99.90
11087;DHT22;5597;47.588;9.642;2024-02-04T03:55:59;2.40;99.90
11087;DHT22;5597;47.588;9.642;2024-02-04T03:58:24;2.40;99.90
11087;DHT22;5597;47.588;9.642;2024-02-04T04:00:57;2.30;99.90
11087;DHT22;5597;47.588;9.642;2024-02-04T04:03:23;2.40;99.90
11087;DHT22;5597;47.588;9.642;2024-02-04T04:05:49;2.50;99.90
11087;DHT22;5597;47.588;9.642;2024-02-04T04:08:15;2.60;99.90
11087;DHT22;5597;47.588;9.642;2024-02-04T04:10:40;2.60;99.90
11087;DHT22;5597;47.588;9.642;2024-02-04T04:13:06;2.70;99.90
11087;DHT22;5597;47.588;9.642;2024-02-04T04:15:31;2.70;99.90
11087;DHT22;5597;47.588;9.642;2024-02-04T04:17:57;2.70;99.90
11087;DHT22;5597;47.588;9.642;2024-02-04T04:20:22;2.70;99.90
11087;DHT22;5597;47.588;9.642;2024-02-04T04:22:48;2.80;99.90
11087;DHT22;5597;47.588;9.642;2024-02-04T04:25:14;2.70;99.90
11087;DHT22;5597;47.588;9.642;2024-02-04T04:27:39;2.70;99.90
11087;DHT22;5597;47.588;9.642;2024-02-04T04:30:06;2.70;99.90
11087;DHT22;5597;47.588;9.642;2024-02-04T04:32:31;2.70;99.90
11087;DHT22;5597;47.588;9.642;2024-02-04T04:34:57;2.70;99.90
11087;DHT22;5597;47.588;9.642;2024-02-04T04:37:23;2.70;99.90
11087;DHT22;5597;47.588;9.642;2024-02-04T04:39:49;2.70;99.90
11087;DHT22;5597;47.588;9.642;2024-02-04T04:42:14;2.70;99.90
11087;DHT22;5597;47.588;9.642;2024-02-04T04:44:40;2.70;99.90
11087;DHT22;5597;47.588;9.642;2024-02-04T04:47:05;2.60;99.90
11087;DHT22;5597;47.588;9.642;2024-02-04T04:49:31;2.60;99.90
11087;DHT22;5597;47.588;9.642;2024-02-04T04:51:57;2.60;99.90
11087;DHT22;5597;47.588;9.642;2024-02-04T04:54:22;2.70;99.90
11087;DHT22;5597;47.588;9.642;2024-02-04T04:56:48;2.70;99.90
11087;DHT22;5597;47.588;9.642;2024-02-04T04:59:15;2.70;99.90
11087;DHT22;5597;47.588;9.642;2024-02-04T05:01:47;2.70;99.90
11087;DHT22;5597;47.588;9.642;2024-02-04T05:04:13;2.70;99.90
11087;DHT22;5597;47.588;9.642;2024-02-04T05:06:39;2.70;99.90
11087;DHT22;5597;47.588;9.642;2024-02-04T05:09:05;2.70;99.90
11087;DHT22;5597;47.588;9.642;2024-02-04T05:11:31;2.60;99.90
11087;DHT22;5597;47.588;9.642;2024-02-04T05:13:56;2.60;99.90
11087;DHT22;5597;47.588;9.642;2024-02-04T05:16:22;2.60;99.90
11087;DHT22;5597;47.588;9.642;2024-02-04T05:18:47;2.60;99.90
11087;DHT22;5597;47.588;9.642;2024-02-04T05:21:13;2.60;99.90
11087;DHT22;5597;47.588;9.642;2024-02-04T05:23:38;2.60;99.90
11087;DHT22;5597;47.588;9.642;2024-02-04T05:26:04;2.60;99.90
11087;DHT22;5597;47.588;9.642;2024-02-04T05:28:31;2.70;99.90
11087;DHT22;5597;47.588;9.642;2024-02-04T05:30:56;2.60;99.90
11087;DHT22;5597;47.588;9.642;2024-02-04T05:33:22;2.70;99.90
11087;DHT22;5597;47.588;9.642;2024-02-04T05:35:47;2.70;99.90
11087;DHT22;5597;47.588;9.642;2024-02-04T05:38:13;2.70;99.90
11087;DHT22;5597;47.588;9.642;2024-02-04T05:40:39;2.70;99.90
11087;DHT22;5597;47.588;9.642;2024-02-04T05:43:05;2.70;99.90
11087;DHT22;5597;47.588;9.642;2024-02-04T05:45:32;2.70;99.90
11087;DHT22;5597;47.588;9.642;2024-02-04T05:47:57;2.70;99.90
11087;DHT22;5597;47.588;9.642;2024-02-04T05:50:23;2.70;99.90
11087;DHT22;5597;47.588;9.642;2024-02-04T05:52:48;2.70;99.90
11087;DHT22;5597;47.588;9.642;2024-02-04T05:55:14;2.70;99.90
11087;DHT22;5597;47.588;9.642;2024-02-04T05:57:40;2.80;99.90
11087;DHT22;5597;47.588;9.642;2024-02-04T06:00:07;2.80;99.90
11087;DHT22;5597;47.588;9.642;2024-02-04T06:02:33;2.80;99.90
11087;DHT22;5597;47.588;9.642;2024-02-04T06:04:59;2.90;99.90
11087;DHT22;5597;47.588;9.642;2024-02-04T06:07:24;2.90;99.90
11087;DHT22;5597;47.588;9.642;2024-02-04T06:09:50;3.00;99.90
11087;DHT22;5597;47.588;9.642;2024-02-04T06:12:15;3.10;99.90
11087;DHT22;5597;47.588;9.642;2024-02-04T06:14:41;3.10;99.90
11087;DHT22;5597;47.588;9.642;2024-02-04T06:17:06;3.10;99.90
11087;DHT22;5597;47.588;9.642;2024-02-04T06:19:34;3.10;99.90
11087;DHT22;5597;47.588;9.642;2024-02-04T06:22:00;3.10;99.90
11087;DHT22;5597;47.588;9.642;2024-02-04T06:24:26;3.20;99.90
11087;DHT22;5597;47.588;9.642;2024-02-04T06:26:51;3.10;99.90
11087;DHT22;5597;47.588;9.642;2024-02-04T06:29:17;3.10;99.90
11087;DHT22;5597;47.588;9.642;2024-02-04T06:31:46;3.10;99.90
11087;DHT22;5597;47.588;9.642;2024-02-04T06:34:12;3.10;99.90
11087;DHT22;5597;47.588;9.642;2024-02-04T06:36:38;3.10;99.90
11087;DHT22;5597;47.588;9.642;2024-02-04T06:39:03;3.10;99.90
11087;DHT22;5597;47.588;9.642;2024-02-04T06:41:29;3.10;99.90
11087;DHT22;5597;47.588;9.642;2024-02-04T06:43:54;3.00;99.90
11087;DHT22;5597;47.588;9.642;2024-02-04T06:46:27;3.00;99.90
11087;DHT22;5597;47.588;9.642;2024-02-04T06:48:53;3.00;99.90
11087;DHT22;5597;47.588;9.642;2024-02-04T06:51:19;3.00;99.90
11087;DHT22;5597;47.588;9.642;2024-02-04T06:53:45;3.00;99.90
11087;DHT22;5597;47.588;9.642;2024-02-04T06:56:10;3.00;99.90
11087;DHT22;5597;47.588;9.642;2024-02-04T06:58:39;3.00;99.90
11087;DHT22;5597;47.588;9.642;2024-02-04T07:01:05;3.00;99.90
11087;DHT22;5597;47.588;9.642;2024-02-04T07:03:31;3.00;99.90
11087;DHT22;5597;47.588;9.642;2024-02-04T07:05:58;3.00;99.90
11087;DHT22;5597;47.588;9.642;2024-02-04T07:08:24;3.00;99.90
11087;DHT22;5597;47.588;9.642;2024-02-04T07:10:50;3.00;99.90
11087;DHT22;5597;47.588;9.642;2024-02-04T07:13:15;3.00;99.90
11087;DHT22;5597;47.588;9.642;2024-02-04T07:15:41;3.00;99.90
11087;DHT22;5597;47.588;9.642;2024-02-04T07:18:07;3.00;99.90
11087;DHT22;5597;47.588;9.642;2024-02-04T07:20:33;3.00;99.90
11087;DHT22;5597;47.588;9.642;2024-02-04T07:23:00;3.00;99.90
11087;DHT22;5597;47.588;9.642;2024-02-04T07:25:26;3.10;99.90
11087;DHT22;5597;47.588;9.642;2024-02-04T07:27:52;3.10;99.90
11087;DHT22;5597;47.588;9.642;2024-02-04T07:30:17;3.10;99.90
11087;DHT22;5597;47.588;9.642;2024-02-04T07:32:43;3.10;99.90
11087;DHT22;5597;47.588;9.642;2024-02-04T07:35:09;3.10;99.90
11087;DHT22;5597;47.588;9.642;2024-02-04T07:37:35;3.10;99.90
11087;DHT22;5597;47.588;9.642;2024-02-04T07:40:01;3.20;99.90
11087;DHT22;5597;47.588;9.642;2024-02-04T07:42:27;3.30;99.90
11087;DHT22;5597;47.588;9.642;2024-02-04T07:44:52;3.30;99.90
11087;DHT22;5597;47.588;9.642;2024-02-04T07:47:18;3.30;99.90
11087;DHT22;5597;47.588;9.642;2024-02-04T07:49:47;3.30;99.90
11087;DHT22;5597;47.588;9.642;2024-02-04T07:52:12;3.30;99.90
11087;DHT22;5597;47.588;9.642;2024-02-04T07:54:38;3.30;99.90
11087;DHT22;5597;47.588;9.642;2024-02-04T07:57:04;3.30;99.90
11087;DHT22;5597;47.588;9.642;2024-02-04T07:59:29;3.30;99.90
11087;DHT22;5597;47.588;9.642;2024-02-04T08:01:55;3.30;99.90
11087;DHT22;5597;47.588;9.642;2024-02-04T08:04:20;3.40;99.90
11087;DHT22;5597;47.588;9.642;2024-02-04T08:06:46;3.40;99.90
11087;DHT22;5597;47.588;9.642;2024-02-04T08:09:12;3.50;99.90
11087;DHT22;5597;47.588;9.642;2024-02-04T08:11:37;3.50;99.90
11087;DHT22;5597;47.588;9.642;2024-02-04T08:14:03;3.50;99.90
11087;DHT22;5597;47.588;9.642;2024-02-04T08:16:28;3.60;99.90
11087;DHT22;5597;47.588;9.642;2024-02-04T08:18:55;3.60;99.90
11087;DHT22;5597;47.588;9.642;2024-02-04T08:21:20;3.80;99.90
11087;DHT22;5597;47.588;9.642;2024-02-04T08:23:46;3.80;99.90
11087;DHT22;5597;47.588;9.642;2024-02-04T08:26:11;3.90;99.90
11087;DHT22;5597;47.588;9.642;2024-02-04T08:28:39;4.00;99.90
11087;DHT22;5597;47.588;9.642;2024-02-04T08:31:05;4.10;99.90
11087;DHT22;5597;47.588;9.642;2024-02-04T08:33:31;4.30;99.90
11087;DHT22;5597;47.588;9.642;2024-02-04T08:35:57;4.40;99.90
11087;DHT22;5597;47.588;9.642;2024-02-04T08:38:22;4.60;99.90
11087;DHT22;5597;47.588;9.642;2024-02-04T08:40:48;4.70;99.90
11087;DHT22;5597;47.588;9.642;2024-02-04T08:43:13;4.90;99.90
11087;DHT22;5597;47.588;9.642;2024-02-04T08:45:39;5.00;99.90
11087;DHT22;5597;47.588;9.642;2024-02-04T08:48:04;5.00;99.90
11087;DHT22;5597;47.588;9.642;2024-02-04T08:50:30;5.10;99.90
11087;DHT22;5597;47.588;9.642;2024-02-04T08:52:56;5.20;99.90
11087;DHT22;5597;47.588;9.642;2024-02-04T08:55:21;5.20;99.90
11087;DHT22;5597;47.588;9.642;2024-02-04T08:57:47;5.30;99.90
11087;DHT22;5597;47.588;9.642;2024-02-04T09:00:16;5.40;99.90
11087;DHT22;5597;47.588;9.642;2024-02-04T09:02:42;5.50;99.90
11087;DHT22;5597;47.588;9.642;2024-02-04T09:05:08;5.60;99.90
11087;DHT22;5597;47.588;9.642;2024-02-04T09:07:33;5.70;99.90
11087;DHT22;5597;47.588;9.642;2024-02-04T09:09:59;6.00;99.90
11087;DHT22;5597;47.588;9.642;2024-02-04T09:12:24;6.10;99.90
11087;DHT22;5597;47.588;9.642;2024-02-04T09:14:50;6.30;99.90
11087;DHT22;5597;47.588;9.642;2024-02-04T09:17:15;6.50;99.90
11087;DHT22;5597;47.588;9.642;2024-02-04T09:19:41;6.80;99.90
11087;DHT22;5597;47.588;9.642;2024-02-04T09:22:07;7.00;99.90
11087;DHT22;5597;47.588;9.642;2024-02-04T09:24:33;7.20;99.90
11087;DHT22;5597;47.588;9.642;2024-02-04T09:26:58;7.40;99.90
11087;DHT22;5597;47.588;9.642;2024-02-04T09:29:24;7.50;99.90
11087;DHT22;5597;47.588;9.642;2024-02-04T09:31:49;7.60;99.90
11087;DHT22;5597;47.588;9.642;2024-02-04T09:34:17;7.70;99.90
11087;DHT22;5597;47.588;9.642;2024-02-04T09:36:43;7.80;99.90
11087;DHT22;5597;47.588;9.642;2024-02-04T09:39:09;7.80;99.90
11087;DHT22;5597;47.588;9.642;2024-02-04T09:41:34;7.80;99.90
11087;DHT22;5597;47.588;9.642;2024-02-04T09:44:02;7.80;99.90
11087;DHT22;5597;47.588;9.642;2024-02-04T09:46:29;7.80;99.90
11087;DHT22;5597;47.588;9.642;2024-02-04T09:48:55;7.80;99.90
11087;DHT22;5597;47.588;9.642;2024-02-04T09:51:22;7.80;99.90
11087;DHT22;5597;47.588;9.642;2024-02-04T09:53:52;7.90;99.90
11087;DHT22;5597;47.588;9.642;2024-02-04T09:56:18;8.00;99.90
11087;DHT22;5597;47.588;9.642;2024-02-04T09:58:44;8.10;99.90
11087;DHT22;5597;47.588;9.642;2024-02-04T10:01:11;8.30;99.90
11087;DHT22;5597;47.588;9.642;2024-02-04T10:03:37;8.40;99.90
11087;DHT22;5597;47.588;9.642;2024-02-04T10:06:03;8.50;99.90
11087;DHT22;5597;47.588;9.642;2024-02-04T10:08:29;8.60;99.90
11087;DHT22;5597;47.588;9.642;2024-02-04T10:10:54;8.60;99.90
11087;DHT22;5597;47.588;9.642;2024-02-04T10:13:20;8.70;99.90
11087;DHT22;5597;47.588;9.642;2024-02-04T10:15:47;8.70;99.90
11087;DHT22;5597;47.588;9.642;2024-02-04T10:18:13;8.90;99.90
11087;DHT22;5597;47.588;9.642;2024-02-04T10:20:39;9.00;99.90
11087;DHT22;5597;47.588;9.642;2024-02-04T10:23:04;9.10;99.90
11087;DHT22;5597;47.588;9.642;2024-02-04T10:25:30;9.10;99.90
11087;DHT22;5597;47.588;9.642;2024-02-04T10:27:56;9.00;99.90
11087;DHT22;5597;47.588;9.642;2024-02-04T10:30:23;9.00;99.90
11087;DHT22;5597;47.588;9.642;2024-02-04T10:32:52;9.10;99.90
11087;DHT22;5597;47.588;9.642;2024-02-04T10:35:20;9.10;99.90
11087;DHT22;5597;47.588;9.642;2024-02-04T10:37:51;9.20;99.90
11087;DHT22;5597;47.588;9.642;2024-02-04T10:40:17;9.20;99.90
11087;DHT22;5597;47.588;9.642;2024-02-04T10:42:44;9.20;99.90
11087;DHT22;5597;47.588;9.642;2024-02-04T10:45:10;9.30;99.90
11087;DHT22;5597;47.588;9.642;2024-02-04T10:47:40;9.30;99.90
11087;DHT22;5597;47.588;9.642;2024-02-04T10:50:06;9.20;99.90
11087;DHT22;5597;47.588;9.642;2024-02-04T10:52:39;9.20;99.90
11087;DHT22;5597;47.588;9.642;2024-02-04T10:55:11;9.20;99.90
11087;DHT22;5597;47.588;9.642;2024-02-04T10:57:40;9.30;99.90
11087;DHT22;5597;47.588;9.642;2024-02-04T11:00:06;9.40;99.90
11087;DHT22;5597;47.588;9.642;2024-02-04T11:02:37;9.40;99.90
11087;DHT22;5597;47.588;9.642;2024-02-04T11:05:04;9.30;99.90
11087;DHT22;5597;47.588;9.642;2024-02-04T11:07:32;9.30;99.90
11087;DHT22;5597;47.588;9.642;2024-02-04T11:10:02;9.30;99.90
11087;DHT22;5597;47.588;9.642;2024-02-04T11:12:30;9.30;99.90
11087;DHT22;5597;47.588;9.642;2024-02-04T11:15:00;9.30;99.90
11087;DHT22;5597;47.588;9.642;2024-02-04T11:27:39;9.70;99.90
11087;DHT22;5597;47.588;9.642;2024-02-04T11:30:06;9.70;99.90
11087;DHT22;5597;47.588;9.642;2024-02-04T11:32:34;9.80;99.90
11087;DHT22;5597;47.588;9.642;2024-02-04T11:35:00;9.90;99.90
11087;DHT22;5597;47.588;9.642;2024-02-04T11:37:28;10.00;99.90
11087;DHT22;5597;47.588;9.642;2024-02-04T11:39:54;10.00;99.90
11087;DHT22;5597;47.588;9.642;2024-02-04T11:42:24;10.10;99.90
11087;DHT22;5597;47.588;9.642;2024-02-04T11:44:50;10.20;99.90
11087;DHT22;5597;47.588;9.642;2024-02-04T11:47:28;10.20;99.90
11087;DHT22;5597;47.588;9.642;2024-02-04T11:49:55;10.20;99.90
11087;DHT22;5597;47.588;9.642;2024-02-04T11:52:21;10.20;99.90
11087;DHT22;5597;47.588;9.642;2024-02-04T11:54:46;10.20;99.90
11087;DHT22;5597;47.588;9.642;2024-02-04T11:57:14;10.20;99.90
11087;DHT22;5597;47.588;9.642;2024-02-04T11:59:42;10.30;99.90
11087;DHT22;5597;47.588;9.642;2024-02-04T12:02:07;10.40;99.90
11087;DHT22;5597;47.588;9.642;2024-02-04T12:04:34;10.40;99.90
11087;DHT22;5597;47.588;9.642;2024-02-04T12:07:00;10.30;99.90
11087;DHT22;5597;47.588;9.642;2024-02-04T12:09:26;10.30;99.90
11087;DHT22;5597;47.588;9.642;2024-02-04T12:11:53;10.30;99.90
11087;DHT22;5597;47.588;9.642;2024-02-04T12:14:19;10.30;99.90
11087;DHT22;5597;47.588;9.642;2024-02-04T12:16:45;10.30;99.90
11087;DHT22;5597;47.588;9.642;2024-02-04T12:19:11;10.30;99.90
11087;DHT22;5597;47.588;9.642;2024-02-04T12:21:37;10.40;99.90
11087;DHT22;5597;47.588;9.642;2024-02-04T12:24:04;10.40;99.90
11087;DHT22;5597;47.588;9.642;2024-02-04T12:26:30;10.40;99.90
11087;DHT22;5597;47.588;9.642;2024-02-04T12:28:56;10.40;99.90
11087;DHT22;5597;47.588;9.642;2024-02-04T12:31:24;10.50;99.90
11087;DHT22;5597;47.588;9.642;2024-02-04T12:33:58;10.50;99.90
11087;DHT22;5597;47.588;9.642;2024-02-04T12:36:27;10.60;99.90
11087;DHT22;5597;47.588;9.642;2024-02-04T12:38:57;10.80;99.90
11087;DHT22;5597;47.588;9.642;2024-02-04T12:41:24;11.00;99.90
11087;DHT22;5597;47.588;9.642;2024-02-04T12:43:51;11.30;99.90
11087;DHT22;5597;47.588;9.642;2024-02-04T12:46:21;11.40;99.90
11087;DHT22;5597;47.588;9.642;2024-02-04T12:48:54;11.60;99.90
11087;DHT22;5597;47.588;9.642;2024-02-04T12:51:29;11.70;99.90
11087;DHT22;5597;47.588;9.642;2024-02-04T12:54:11;11.70;99.90
11087;DHT22;5597;47.588;9.642;2024-02-04T12:56:49;11.70;99.90
11087;DHT22;5597;47.588;9.642;2024-02-04T12:59:29;11.70;99.90
11087;DHT22;5597;47.588;9.642;2024-02-04T13:01:59;11.80;99.90
11087;DHT22;5597;47.588;9.642;2024-02-04T13:04:26;11.90;99.90
11087;DHT22;5597;47.588;9.642;2024-02-04T13:06:51;11.80;99.90
11087;DHT22;5597;47.588;9.642;2024-02-04T13:09:17;11.80;99.90
11087;DHT22;5597;47.588;9.642;2024-02-04T13:11:43;11.80;99.90
11087;DHT22;5597;47.588;9.642;2024-02-04T13:14:09;11.80;99.90
11087;DHT22;5597;47.588;9.642;2024-02-04T13:16:35;11.80;99.90
11087;DHT22;5597;47.588;9.642;2024-02-04T13:19:04;11.90;99.90
11087;DHT22;5597;47.588;9.642;2024-02-04T13:21:30;11.90;99.90
11087;DHT22;5597;47.588;9.642;2024-02-04T13:23:56;11.90;99.90
11087;DHT22;5597;47.588;9.642;2024-02-04T13:26:21;12.00;99.90
11087;DHT22;5597;47.588;9.642;2024-02-04T13:28:47;12.10;99.90
11087;DHT22;5597;47.588;9.642;2024-02-04T13:31:13;12.20;99.90
11087;DHT22;5597;47.588;9.642;2024-02-04T13:33:39;12.20;99.90
11087;DHT22;5597;47.588;9.642;2024-02-04T13:36:07;12.30;99.90
11087;DHT22;5597;47.588;9.642;2024-02-04T13:38:33;12.40;99.90
11087;DHT22;5597;47.588;9.642;2024-02-04T13:40:59;12.40;99.90
11087;DHT22;5597;47.588;9.642;2024-02-04T13:43:24;12.50;99.90
11087;DHT22;5597;47.588;9.642;2024-02-04T13:45:51;12.60;99.90
11087;DHT22;5597;47.588;9.642;2024-02-04T13:48:16;12.70;99.90
11087;DHT22;5597;47.588;9.642;2024-02-04T13:50:44;12.90;99.90
11087;DHT22;5597;47.588;9.642;2024-02-04T13:53:10;13.00;99.90
11087;DHT22;5597;47.588;9.642;2024-02-04T13:55:36;13.10;99.90
11087;DHT22;5597;47.588;9.642;2024-02-04T13:58:03;13.30;99.90
11087;DHT22;5597;47.588;9.642;2024-02-04T14:00:29;13.20;99.90
11087;DHT22;5597;47.588;9.642;2024-02-04T14:02:54;13.30;99.90
11087;DHT22;5597;47.588;9.642;2024-02-04T14:05:20;13.30;99.90
11087;DHT22;5597;47.588;9.642;2024-02-04T14:07:45;13.30;99.90
11087;DHT22;5597;47.588;9.642;2024-02-04T14:10:11;13.40;99.90
11087;DHT22;5597;47.588;9.642;2024-02-04T14:12:38;13.40;99.90
11087;DHT22;5597;47.588;9.642;2024-02-04T14:15:05;13.40;99.90
11087;DHT22;5597;47.588;9.642;2024-02-04T14:17:32;13.50;99.90
11087;DHT22;5597;47.588;9.642;2024-02-04T14:19:58;13.50;99.90
11087;DHT22;5597;47.588;9.642;2024-02-04T14:22:26;13.60;99.90
11087;DHT22;5597;47.588;9.642;2024-02-04T14:24:53;13.60;99.90
11087;DHT22;5597;47.588;9.642;2024-02-04T14:27:18;13.60;99.90
11087;DHT22;5597;47.588;9.642;2024-02-04T14:29:44;13.40;99.90
11087;DHT22;5597;47.588;9.642;2024-02-04T14:32:09;13.40;99.90
11087;DHT22;5597;47.588;9.642;2024-02-04T14:34:35;13.20;99.90
11087;DHT22;5597;47.588;9.642;2024-02-04T14:37:01;13.10;99.90
11087;DHT22;5597;47.588;9.642;2024-02-04T14:39:29;13.10;99.90
11087;DHT22;5597;47.588;9.642;2024-02-04T14:41:57;13.00;99.90
11087;DHT22;5597;47.588;9.642;2024-02-04T14:44:22;12.90;99.90
11087;DHT22;5597;47.588;9.642;2024-02-04T14:46:49;12.80;99.90
11087;DHT22;5597;47.588;9.642;2024-02-04T14:49:15;12.60;99.90
11087;DHT22;5597;47.588;9.642;2024-02-04T14:51:41;12.50;99.90
11087;DHT22;5597;47.588;9.642;2024-02-04T14:54:07;12.40;99.90
11087;DHT22;5597;47.588;9.642;2024-02-04T14:56:42;12.30;99.90
11087;DHT22;5597;47.588;9.642;2024-02-04T14:59:11;12.20;99.90
11087;DHT22;5597;47.588;9.642;2024-02-04T15:01:37;12.10;99.90
11087;DHT22;5597;47.588;9.642;2024-02-04T15:04:03;12.00;99.90
11087;DHT22;5597;47.588;9.642;2024-02-04T15:06:30;11.90;99.90
11087;DHT22;5597;47.588;9.642;2024-02-04T15:08:56;11.90;99.90
11087;DHT22;5597;47.588;9.642;2024-02-04T15:11:24;11.80;99.90
11087;DHT22;5597;47.588;9.642;2024-02-04T15:13:50;11.70;99.90
11087;DHT22;5597;47.588;9.642;2024-02-04T15:16:16;11.60;99.90
11087;DHT22;5597;47.588;9.642;2024-02-04T15:18:42;11.60;99.90
11087;DHT22;5597;47.588;9.642;2024-02-04T15:21:08;11.50;99.90
11087;DHT22;5597;47.588;9.642;2024-02-04T15:23:34;11.40;99.90
11087;DHT22;5597;47.588;9.642;2024-02-04T15:26:01;11.30;99.90
11087;DHT22;5597;47.588;9.642;2024-02-04T15:28:27;11.20;99.90
11087;DHT22;5597;47.588;9.642;2024-02-04T15:30:53;11.20;99.90
11087;DHT22;5597;47.588;9.642;2024-02-04T15:33:19;11.10;99.90
11087;DHT22;5597;47.588;9.642;2024-02-04T15:35:45;11.00;99.90
11087;DHT22;5597;47.588;9.642;2024-02-04T15:38:10;11.00;99.90
11087;DHT22;5597;47.588;9.642;2024-02-04T15:40:36;10.90;99.90
11087;DHT22;5597;47.588;9.642;2024-02-04T15:43:02;10.90;99.90
11087;DHT22;5597;47.588;9.642;2024-02-04T15:45:27;10.80;99.90
11087;DHT22;5597;47.588;9.642;2024-02-04T15:47:53;10.80;99.90
11087;DHT22;5597;47.588;9.642;2024-02-04T15:50:22;10.70;99.90
11087;DHT22;5597;47.588;9.642;2024-02-04T15:52:49;10.70;99.90
11087;DHT22;5597;47.588;9.642;2024-02-04T15:55:17;10.60;99.90
11087;DHT22;5597;47.588;9.642;2024-02-04T15:57:48;10.50;99.90
11087;DHT22;5597;47.588;9.642;2024-02-04T16:00:15;10.50;99.90
11087;DHT22;5597;47.588;9.642;2024-02-04T16:02:49;10.40;99.90